Terminal Aerodrome Forecast
Issued by NWS Central Illinois

Home | Current Version | Previous Version | Text Only | Print | Product List | Glossary On
Versions: 1 2 3 4 5 6 7 8 9 10 11 12 13 14 15 16
310
FTUS43 KILX 200523
TAFPIA
TAF
KPIA 200523Z 2006/2106 VRB03KT P6SM SKC
     FM201100 17005KT P6SM SCT100
      TEMPO 2011/2013 5SM BR
     FM201800 20007KT P6SM SCT070 BKN200
     FM202100 20007KT P6SM BKN050=

USA.gov is the U.S. government's official web portal to all federal, state and local government web resources and services.